Airport View

Enter AWOS ICAO identifier for current METAR.

ex. KFNL

KHHW 250955Z AUTO 11004KT 10SM OVC009 10/08 A3000 RMK AO2

25 Oct 2020 10:17

Frequency: 119.025

Phone: 580-326-2134

Other Area AWOS: KPRX - K4O4 - KAQR - KF00

TAF KMLC 250520Z 2506/2606 04003KT P6SM OVC024 FM251700 05005KT P6SM OVC015 FM260000 02007KT P6SM OVC015